aviador You're here:

KS32 Decoded Metar

in
Report Time2017-12-16 18:35:00
UTC Time2017-12-16 18:53:41
Flight Rules mvfr MVFR
Wind330° at 08 kt
W.Rank330° ranks 5
Current wind is below 330° avg. (12.3)
Visibility9999 m
Phenomena:N/A
Clouds:Overcast 014 Hf
Ceiling1,400 ft
Temp01°C
Dew Point01°C (100% RH)
AAT-3.7°C
QNH1012 hPa
Raw Report
METAR KS32 161835Z AUTO 33008KT 9SM OVC014 01/01 A2988 RMK AO2=

Extra information for KS32:More info

Social comments